Time;durP1;ratioP1;P1;durP2;ratioP2;P2;SDS_P1;SDS_P2;PMS_P1;PMS_P2;Temp;Humidity;BMP_temperature;BMP_pressure;BME280_temperature;BME280_humidity;BME280_pressure;Samples;Min_cycle;Max_cycle;Signal;HPM_P1;HPM_P2
2023/03/20 00:00:13;;;;;;;9.00;4.82;;;7.10;99.90;;;;;;5110012;28;20076;-83
2023/03/20 00:02:38;;;;;;;6.72;4.57;;;7.10;99.90;;;;;;5095656;27;20127;-82
2023/03/20 00:05:31;;;;;;;7.38;4.22;;;7.10;99.90;;;;;;5115860;27;20486;-83
2023/03/20 00:07:57;;;;;;;7.60;3.92;;;7.10;99.90;;;;;;5116473;27;20047;-83
2023/03/20 00:10:38;;;;;;;7.57;4.68;;;7.10;99.90;;;;;;5099809;28;20035;-82
2023/03/20 00:13:05;;;;;;;7.90;4.50;;;7.10;99.90;;;;;;5108121;28;20035;-83
2023/03/20 00:15:36;;;;;;;8.10;4.32;;;7.00;99.90;;;;;;5110328;27;20352;-83
2023/03/20 00:18:03;;;;;;;9.50;4.50;;;7.10;99.90;;;;;;5106841;28;20426;-83
2023/03/20 00:20:28;;;;;;;8.48;4.43;;;7.10;99.90;;;;;;5118292;27;20119;-83
2023/03/20 00:22:54;;;;;;;6.28;4.03;;;7.10;99.90;;;;;;5114428;27;20059;-83
2023/03/20 00:25:23;;;;;;;11.32;4.70;;;7.10;99.90;;;;;;5109577;28;20039;-83
2023/03/20 00:27:49;;;;;;;8.13;4.22;;;7.10;99.90;;;;;;5108377;28;20043;-83
2023/03/20 00:30:17;;;;;;;7.70;4.88;;;7.10;99.90;;;;;;5135895;27;20032;-83
2023/03/20 00:32:43;;;;;;;9.88;4.80;;;7.10;99.90;;;;;;5093415;28;20043;-83
2023/03/20 00:35:20;;;;;;;8.63;4.80;;;7.10;99.90;;;;;;5112896;28;20494;-83
2023/03/20 00:37:45;;;;;;;8.88;4.60;;;7.10;99.90;;;;;;5111839;27;20038;-83
2023/03/20 00:40:12;;;;;;;7.60;4.60;;;7.20;99.90;;;;;;5108396;27;20506;-83
2023/03/20 00:42:37;;;;;;;8.73;4.80;;;7.20;99.90;;;;;;5099207;27;20177;-83
2023/03/20 00:45:04;;;;;;;7.97;4.53;;;7.20;99.90;;;;;;5105370;28;20696;-83
2023/03/20 00:47:32;;;;;;;7.80;4.72;;;7.20;99.90;;;;;;5111228;27;20046;-83
2023/03/20 00:49:58;;;;;;;8.20;4.88;;;7.20;99.90;;;;;;5111131;27;20548;-83
2023/03/20 00:52:24;;;;;;;11.73;5.15;;;7.20;99.90;;;;;;5092792;28;20039;-83
2023/03/20 00:54:50;;;;;;;10.52;5.03;;;7.20;99.90;;;;;;5095284;27;20032;-83
2023/03/20 00:57:42;;;;;;;8.13;4.78;;;7.20;99.90;;;;;;5116762;27;20125;-83
2023/03/20 01:00:21;;;;;;;7.60;4.50;;;7.20;99.90;;;;;;5096031;27;20038;-83
2023/03/20 01:02:46;;;;;;;10.40;4.65;;;7.20;99.90;;;;;;5106939;27;20495;-83
2023/03/20 01:05:12;;;;;;;10.10;5.13;;;7.10;99.90;;;;;;5114241;27;20071;-83
2023/03/20 01:07:38;;;;;;;10.43;4.60;;;7.20;99.90;;;;;;5103326;27;20122;-83
2023/03/20 01:10:05;;;;;;;8.02;4.80;;;7.20;99.90;;;;;;5095454;27;20183;-83
2023/03/20 01:12:30;;;;;;;9.23;4.63;;;7.20;99.90;;;;;;5113898;27;20126;-83
2023/03/20 01:14:57;;;;;;;11.93;4.80;;;7.20;99.90;;;;;;5114260;27;20066;-83
2023/03/20 01:17:24;;;;;;;9.48;4.75;;;7.20;99.90;;;;;;5114647;27;20051;-83
2023/03/20 01:19:50;;;;;;;9.80;4.65;;;7.20;99.90;;;;;;5096936;27;20063;-83
2023/03/20 01:22:19;;;;;;;12.38;4.82;;;7.20;99.90;;;;;;5139917;27;20039;-83
2023/03/20 01:24:46;;;;;;;7.85;4.53;;;7.20;99.90;;;;;;5122343;27;20506;-83
2023/03/20 01:27:17;;;;;;;10.80;4.47;;;7.20;99.90;;;;;;5110989;28;20494;-83
2023/03/20 01:29:43;;;;;;;9.25;4.60;;;7.20;99.90;;;;;;5105563;27;20536;-83
2023/03/20 01:32:16;;;;;;;8.73;4.47;;;7.20;99.90;;;;;;5107645;27;20030;-83
2023/03/20 01:34:42;;;;;;;9.95;4.50;;;7.20;99.90;;;;;;5113540;27;20118;-83
2023/03/20 01:37:14;;;;;;;10.25;4.93;;;7.20;99.90;;;;;;5111490;27;20038;-83
2023/03/20 01:39:40;;;;;;;9.55;4.85;;;7.20;99.90;;;;;;5106754;28;20043;-83
2023/03/20 01:42:06;;;;;;;10.75;4.57;;;7.20;99.90;;;;;;5114520;27;20042;-83
2023/03/20 01:44:34;;;;;;;10.30;5.07;;;7.20;99.90;;;;;;5113497;27;20568;-83
2023/03/20 01:47:02;;;;;;;8.18;4.55;;;7.20;99.90;;;;;;5112700;28;20039;-83
2023/03/20 01:49:28;;;;;;;9.45;5.13;;;7.20;99.90;;;;;;5112717;28;20040;-82
2023/03/20 01:51:57;;;;;;;12.82;5.50;;;7.20;99.90;;;;;;5138834;27;20028;-83
2023/03/20 01:54:27;;;;;;;9.63;5.15;;;7.20;99.90;;;;;;5117971;27;20043;-83
2023/03/20 01:57:12;;;;;;;13.93;5.63;;;7.20;99.90;;;;;;5107801;28;20074;-83
2023/03/20 01:59:45;;;;;;;12.75;5.70;;;7.20;99.90;;;;;;5116514;27;20044;-83
2023/03/20 02:02:16;;;;;;;12.48;6.00;;;7.20;99.90;;;;;;5129012;27;20054;-83
2023/03/20 02:04:46;;;;;;;12.75;6.07;;;7.20;99.90;;;;;;5093499;28;20035;-83
2023/03/20 02:07:17;;;;;;;13.93;6.28;;;7.20;99.90;;;;;;5094690;27;20470;-83
2023/03/20 02:09:42;;;;;;;11.52;6.00;;;7.20;99.90;;;;;;5116913;27;20050;-83
2023/03/20 02:12:09;;;;;;;12.25;6.03;;;7.30;99.90;;;;;;5110678;28;20063;-83
2023/03/20 02:14:35;;;;;;;15.23;6.20;;;7.20;99.90;;;;;;5111356;28;20047;-83
2023/03/20 02:17:04;;;;;;;13.95;6.28;;;7.20;99.90;;;;;;5111223;27;20046;-83
2023/03/20 02:20:09;;;;;;;15.23;6.65;;;7.20;99.90;;;;;;5100726;28;20126;-83
2023/03/20 02:22:53;;;;;;;17.17;6.95;;;7.20;99.90;;;;;;5113223;27;20122;-83
2023/03/20 02:25:37;;;;;;;15.95;6.55;;;7.20;99.90;;;;;;5121721;27;20035;-83
2023/03/20 02:28:43;;;;;;;12.13;6.38;;;7.30;99.90;;;;;;5094867;28;20031;-83
2023/03/20 02:31:17;;;;;;;15.15;6.88;;;7.30;99.90;;;;;;5116463;28;21269;-83
2023/03/20 02:34:02;;;;;;;17.75;6.57;;;7.30;99.90;;;;;;5107729;28;20032;-83
2023/03/20 02:36:42;;;;;;;16.88;7.07;;;7.30;99.90;;;;;;5117573;28;20044;-83
2023/03/20 02:39:41;;;;;;;15.50;7.22;;;7.30;99.90;;;;;;5103809;28;20047;-83
2023/03/20 02:42:26;;;;;;;16.27;6.32;;;7.30;99.90;;;;;;5114063;28;20047;-82
2023/03/20 02:45:15;;;;;;;13.38;6.68;;;7.30;99.90;;;;;;5099800;28;20437;-83
2023/03/20 02:48:09;;;;;;;20.20;6.63;;;7.40;99.90;;;;;;5099982;27;20051;-82
2023/03/20 02:50:57;;;;;;;17.45;6.30;;;7.30;99.90;;;;;;5109150;27;20036;-83
2023/03/20 02:53:52;;;;;;;13.02;6.65;;;7.40;99.90;;;;;;5114879;28;20540;-83
2023/03/20 02:56:41;;;;;;;13.57;5.85;;;7.30;99.90;;;;;;5098140;28;20034;-83
2023/03/20 02:59:29;;;;;;;16.30;6.40;;;7.40;99.90;;;;;;5097710;28;20039;-83
2023/03/20 03:02:04;;;;;;;12.07;5.82;;;7.40;99.90;;;;;;5107848;28;20127;-83
2023/03/20 03:04:35;;;;;;;13.45;6.53;;;7.40;99.90;;;;;;5112300;28;20047;-83
2023/03/20 03:07:04;;;;;;;12.25;6.95;;;7.40;99.90;;;;;;5118203;27;20377;-83
2023/03/20 03:09:40;;;;;;;16.40;7.18;;;7.40;99.90;;;;;;5103852;27;20050;-82
2023/03/20 03:12:13;;;;;;;20.13;7.50;;;7.40;99.90;;;;;;5096434;28;20043;-82
2023/03/20 03:14:43;;;;;;;14.20;7.60;;;7.30;99.90;;;;;;5113708;27;20390;-83
2023/03/20 03:17:11;;;;;;;12.45;7.28;;;7.40;99.90;;;;;;5114203;27;20023;-83
2023/03/20 03:19:41;;;;;;;17.25;6.90;;;7.40;99.90;;;;;;5100987;27;20059;-83
2023/03/20 03:22:07;;;;;;;13.60;7.53;;;7.40;99.90;;;;;;5118726;27;20040;-83
2023/03/20 03:24:35;;;;;;;15.45;8.30;;;7.40;99.90;;;;;;5119214;27;20054;-83
2023/03/20 03:27:08;;;;;;;17.35;8.00;;;7.40;99.90;;;;;;5115261;28;20040;-83
2023/03/20 03:29:38;;;;;;;18.42;8.63;;;7.30;99.90;;;;;;5116625;27;20047;-83
2023/03/20 03:32:06;;;;;;;18.13;7.90;;;7.40;99.90;;;;;;5111249;27;20083;-83
2023/03/20 03:34:33;;;;;;;16.67;7.82;;;7.40;99.90;;;;;;5115710;27;20046;-83
2023/03/20 03:37:02;;;;;;;13.60;8.20;;;7.40;99.90;;;;;;5121601;27;20479;-83
2023/03/20 03:39:51;;;;;;;16.92;8.70;;;7.40;99.90;;;;;;5095708;28;20047;-83
2023/03/20 03:42:40;;;;;;;16.10;7.97;;;7.40;99.90;;;;;;5107873;27;20051;-83
2023/03/20 03:45:14;;;;;;;15.38;7.78;;;7.40;99.90;;;;;;5094213;28;20411;-83
2023/03/20 03:47:52;;;;;;;16.23;8.10;;;7.40;99.90;;;;;;5123207;27;20494;-83
2023/03/20 03:50:26;;;;;;;15.82;8.48;;;7.40;99.90;;;;;;5116132;27;20057;-83
2023/03/20 03:52:55;;;;;;;14.35;8.13;;;7.40;99.90;;;;;;5109541;28;20032;-83
2023/03/20 03:55:24;;;;;;;15.70;8.10;;;7.40;99.90;;;;;;5098325;27;20047;-83
2023/03/20 03:57:59;;;;;;;15.82;7.60;;;7.40;99.90;;;;;;5116076;27;20047;-83
2023/03/20 04:00:26;;;;;;;13.77;7.88;;;7.40;99.90;;;;;;5116081;28;20044;-83
2023/03/20 04:02:56;;;;;;;18.35;7.50;;;7.50;99.90;;;;;;5113237;28;20078;-83
2023/03/20 04:05:23;;;;;;;19.23;7.88;;;7.50;99.90;;;;;;5098301;28;20032;-83
2023/03/20 04:07:54;;;;;;;13.65;6.60;;;7.50;99.90;;;;;;5113391;28;20047;-83
2023/03/20 04:10:20;;;;;;;12.27;7.25;;;7.50;99.90;;;;;;5114121;27;20035;-82
2023/03/20 04:12:46;;;;;;;14.07;7.10;;;7.50;99.90;;;;;;5119841;27;20112;-83
2023/03/20 04:15:14;;;;;;;14.68;7.72;;;7.50;99.90;;;;;;5098798;27;20035;-83
2023/03/20 04:17:40;;;;;;;12.93;7.32;;;7.50;99.90;;;;;;5116301;27;20028;-82
2023/03/20 04:20:08;;;;;;;13.57;7.47;;;7.50;99.90;;;;;;5113809;27;20042;-82
2023/03/20 04:22:34;;;;;;;13.90;7.60;;;7.50;99.90;;;;;;5093709;28;20047;-82
2023/03/20 04:25:04;;;;;;;16.95;7.43;;;7.50;99.90;;;;;;5117201;27;20031;-83
2023/03/20 04:27:30;;;;;;;15.75;7.72;;;7.50;99.90;;;;;;5108615;28;20040;-83
2023/03/20 04:29:56;;;;;;;16.90;7.72;;;7.50;99.90;;;;;;5113478;27;20047;-82
2023/03/20 04:32:21;;;;;;;15.93;7.05;;;7.50;99.90;;;;;;5103463;27;20035;-83
2023/03/20 04:34:47;;;;;;;13.48;7.80;;;7.50;99.90;;;;;;5102018;28;20040;-83
2023/03/20 04:37:13;;;;;;;15.32;8.95;;;7.40;99.90;;;;;;5105001;27;20497;-82
2023/03/20 04:39:41;;;;;;;15.25;8.20;;;7.50;99.90;;;;;;5096084;28;20066;-83
2023/03/20 04:42:07;;;;;;;16.17;8.13;;;7.50;99.90;;;;;;5100106;28;20119;-83
2023/03/20 04:44:33;;;;;;;14.15;8.25;;;7.50;99.90;;;;;;5116828;27;20050;-82
2023/03/20 04:46:59;;;;;;;15.52;8.20;;;7.40;99.90;;;;;;5113178;28;20039;-83
2023/03/20 04:49:25;;;;;;;17.60;8.38;;;7.50;99.90;;;;;;5110850;28;20543;-83
2023/03/20 04:51:52;;;;;;;14.93;7.90;;;7.50;99.90;;;;;;5121650;27;20059;-83
2023/03/20 04:54:17;;;;;;;15.25;8.77;;;7.40;99.90;;;;;;5094461;28;20063;-83
2023/03/20 04:56:43;;;;;;;14.75;7.57;;;7.40;99.90;;;;;;5106401;28;20028;-83
2023/03/20 04:59:09;;;;;;;14.48;7.38;;;7.50;99.90;;;;;;5117040;27;20044;-83
2023/03/20 05:01:34;;;;;;;15.88;7.40;;;7.40;99.90;;;;;;5111493;27;20087;-83
2023/03/20 05:04:00;;;;;;;15.15;7.60;;;7.40;99.90;;;;;;5113238;28;20035;-82
2023/03/20 05:06:32;;;;;;;15.23;7.32;;;7.50;99.90;;;;;;5093620;28;20047;-83
2023/03/20 05:08:59;;;;;;;16.20;7.35;;;7.40;99.90;;;;;;5095767;28;20126;-83
2023/03/20 05:11:26;;;;;;;15.85;7.47;;;7.40;99.90;;;;;;5114128;27;20085;-83
2023/03/20 05:13:51;;;;;;;16.50;8.00;;;7.40;99.90;;;;;;5098246;28;20036;-83
2023/03/20 05:16:17;;;;;;;17.65;7.20;;;7.40;99.90;;;;;;5110806;27;20038;-83
2023/03/20 05:18:42;;;;;;;15.38;7.88;;;7.40;99.90;;;;;;5117879;27;20039;-83
2023/03/20 05:21:08;;;;;;;15.35;7.25;;;7.40;99.90;;;;;;5120854;27;20040;-83
2023/03/20 05:23:34;;;;;;;16.67;6.82;;;7.40;99.90;;;;;;5121251;27;20043;-83
2023/03/20 05:26:00;;;;;;;14.48;7.43;;;7.40;99.90;;;;;;5114261;27;20092;-82
2023/03/20 05:28:26;;;;;;;14.40;7.43;;;7.40;99.90;;;;;;5114578;27;20067;-82
2023/03/20 05:30:52;;;;;;;13.00;7.00;;;7.30;99.90;;;;;;5118136;27;20490;-82
2023/03/20 05:33:17;;;;;;;12.65;6.95;;;7.40;99.90;;;;;;5121006;27;20041;-83
2023/03/20 05:35:43;;;;;;;15.55;7.57;;;7.40;99.90;;;;;;5117591;27;20036;-83
2023/03/20 05:38:08;;;;;;;14.45;7.32;;;7.40;99.90;;;;;;5094443;27;20034;-83
2023/03/20 05:40:34;;;;;;;14.88;6.70;;;7.40;99.90;;;;;;5104979;28;20497;-82
2023/03/20 05:42:59;;;;;;;14.95;7.55;;;7.40;99.90;;;;;;5093473;28;20040;-82
2023/03/20 05:45:25;;;;;;;11.13;6.65;;;7.40;99.90;;;;;;5114041;28;20498;-82
2023/03/20 05:47:51;;;;;;;13.93;7.78;;;7.40;99.90;;;;;;5108829;28;20495;-82
2023/03/20 05:50:16;;;;;;;12.63;6.82;;;7.40;99.90;;;;;;5106667;28;20595;-83
2023/03/20 05:52:42;;;;;;;15.57;7.53;;;7.40;99.90;;;;;;5108915;27;20035;-82
2023/03/20 05:55:07;;;;;;;14.05;7.45;;;7.40;99.90;;;;;;5094582;28;20036;-83
2023/03/20 05:57:33;;;;;;;15.68;7.97;;;7.40;99.90;;;;;;5103289;28;20477;-83
2023/03/20 05:59:59;;;;;;;14.55;7.70;;;7.30;99.90;;;;;;5092524;28;20046;-83
2023/03/20 06:02:24;;;;;;;14.60;7.72;;;7.40;99.90;;;;;;5093422;28;20067;-83
2023/03/20 06:04:50;;;;;;;13.30;7.20;;;7.40;99.90;;;;;;5095274;28;20036;-83
2023/03/20 06:07:15;;;;;;;16.15;7.55;;;7.30;99.90;;;;;;5127342;27;20575;-83
2023/03/20 06:09:41;;;;;;;16.05;8.30;;;7.30;99.90;;;;;;5074461;28;20065;-83
2023/03/20 06:12:06;;;;;;;14.50;7.68;;;7.40;99.90;;;;;;5076366;28;20047;-83
2023/03/20 06:14:32;;;;;;;13.93;7.93;;;7.40;99.90;;;;;;5127364;27;20032;-83
2023/03/20 06:16:59;;;;;;;12.38;6.75;;;7.40;99.90;;;;;;5096517;28;20039;-83
2023/03/20 06:19:25;;;;;;;14.55;7.82;;;7.40;99.90;;;;;;5095322;28;20048;-83
2023/03/20 06:21:50;;;;;;;18.08;8.07;;;7.40;99.90;;;;;;5106433;28;20124;-83
2023/03/20 06:24:16;;;;;;;15.57;8.38;;;7.40;99.90;;;;;;5099151;28;20049;-83
2023/03/20 06:26:42;;;;;;;15.68;7.88;;;7.40;99.90;;;;;;5096805;28;20039;-84
2023/03/20 06:29:07;;;;;;;17.90;8.23;;;7.40;99.90;;;;;;5102252;28;20135;-83
2023/03/20 06:31:33;;;;;;;18.27;8.07;;;7.40;99.90;;;;;;5104454;28;20039;-83
2023/03/20 06:33:58;;;;;;;14.43;7.68;;;7.50;99.90;;;;;;5095054;28;20513;-83
2023/03/20 06:36:25;;;;;;;12.82;7.93;;;7.50;99.90;;;;;;5105066;28;20036;-83
2023/03/20 06:38:50;;;;;;;17.35;8.48;;;7.50;99.90;;;;;;5112964;28;20404;-83
2023/03/20 06:41:16;;;;;;;15.15;8.35;;;7.50;99.90;;;;;;5109424;28;20046;-83
2023/03/20 06:43:41;;;;;;;14.75;8.70;;;7.60;99.90;;;;;;5117701;28;20039;-83
2023/03/20 06:46:08;;;;;;;15.00;8.52;;;7.60;99.90;;;;;;5120133;28;20039;-83
2023/03/20 06:48:33;;;;;;;14.95;8.48;;;7.60;99.90;;;;;;5097613;28;20044;-83
2023/03/20 06:50:59;;;;;;;15.90;8.57;;;7.60;99.90;;;;;;5143222;27;20035;-83
2023/03/20 06:53:25;;;;;;;15.63;9.00;;;7.60;99.90;;;;;;5108766;28;20036;-83
2023/03/20 06:55:51;;;;;;;15.88;8.30;;;7.60;99.90;;;;;;5118811;28;20032;-86
2023/03/20 06:58:17;;;;;;;15.38;8.27;;;7.70;99.90;;;;;;5092044;28;20035;-83
2023/03/20 07:00:43;;;;;;;17.02;9.77;;;7.70;99.90;;;;;;5089998;28;20063;-83
2023/03/20 07:03:10;;;;;;;15.75;8.45;;;7.70;99.90;;;;;;5092315;28;20079;-83
2023/03/20 07:05:37;;;;;;;16.85;8.77;;;7.70;99.90;;;;;;5111810;28;20403;-82
2023/03/20 07:08:03;;;;;;;16.88;8.70;;;7.80;99.90;;;;;;5108496;28;20028;-83
2023/03/20 07:10:28;;;;;;;15.65;8.50;;;7.80;99.90;;;;;;5113134;28;20086;-83
2023/03/20 07:12:54;;;;;;;18.13;9.18;;;7.80;99.90;;;;;;5107582;28;20031;-82
2023/03/20 07:15:20;;;;;;;15.45;8.35;;;7.80;99.90;;;;;;5111697;28;20043;-84
2023/03/20 07:17:46;;;;;;;14.77;8.75;;;7.90;99.90;;;;;;5109767;28;20038;-84
2023/03/20 07:20:13;;;;;;;14.95;8.77;;;7.90;99.90;;;;;;5112274;28;20047;-83
2023/03/20 07:22:40;;;;;;;14.73;8.27;;;7.90;99.90;;;;;;5116185;28;20095;-83
2023/03/20 07:25:08;;;;;;;15.77;8.55;;;8.00;99.90;;;;;;5108604;28;20040;-83
2023/03/20 07:27:34;;;;;;;21.23;9.27;;;8.00;99.90;;;;;;5107180;28;20138;-83
2023/03/20 07:29:59;;;;;;;14.07;8.25;;;8.10;99.90;;;;;;5096416;28;20043;-83
2023/03/20 07:32:25;;;;;;;15.68;8.90;;;8.20;99.90;;;;;;5113596;28;20395;-83
2023/03/20 07:34:51;;;;;;;15.02;9.63;;;8.20;99.90;;;;;;5117671;28;20091;-83
2023/03/20 07:37:16;;;;;;;17.15;8.93;;;8.30;99.90;;;;;;5109783;28;20510;-83
2023/03/20 07:39:42;;;;;;;16.40;9.35;;;8.30;99.90;;;;;;5096458;28;20039;-83
2023/03/20 07:42:08;;;;;;;15.80;8.60;;;8.40;99.90;;;;;;5118884;28;20062;-83
2023/03/20 07:44:34;;;;;;;16.67;9.00;;;8.40;99.90;;;;;;5112956;28;20032;-83
2023/03/20 07:47:00;;;;;;;18.25;9.27;;;8.40;99.90;;;;;;5096446;28;20084;-83
2023/03/20 07:49:25;;;;;;;16.80;10.07;;;8.40;99.90;;;;;;5132338;27;20126;-83
2023/03/20 07:51:53;;;;;;;19.23;9.05;;;8.50;99.90;;;;;;5116249;28;20047;-84
2023/03/20 07:54:19;;;;;;;18.70;9.40;;;8.50;99.90;;;;;;5112484;28;20104;-83
2023/03/20 07:56:45;;;;;;;16.05;9.57;;;8.50;99.90;;;;;;5108999;28;20040;-83
2023/03/20 07:59:11;;;;;;;15.85;9.10;;;8.50;99.90;;;;;;5109763;28;20073;-84
2023/03/20 08:01:37;;;;;;;21.48;9.55;;;8.60;99.90;;;;;;5110996;28;20056;-83
2023/03/20 08:04:03;;;;;;;17.25;8.65;;;8.60;99.90;;;;;;5122422;28;20044;-83
2023/03/20 08:06:29;;;;;;;19.83;9.38;;;8.60;99.90;;;;;;5112035;28;20043;-83
2023/03/20 08:08:54;;;;;;;18.13;9.93;;;8.70;99.90;;;;;;5092853;28;20088;-83
2023/03/20 08:11:20;;;;;;;16.63;9.15;;;8.70;99.90;;;;;;5112331;28;20437;-82
2023/03/20 08:13:45;;;;;;;17.08;9.02;;;8.80;99.90;;;;;;5108579;28;20027;-83
2023/03/20 08:16:11;;;;;;;16.45;9.90;;;8.90;99.90;;;;;;5092398;28;20487;-83
2023/03/20 08:18:36;;;;;;;15.20;8.52;;;8.90;99.90;;;;;;5110711;28;20047;-83
2023/03/20 08:21:03;;;;;;;16.88;10.07;;;8.90;99.90;;;;;;5111158;28;20123;-83
2023/03/20 08:23:28;;;;;;;18.75;8.90;;;8.90;99.90;;;;;;5146933;27;20146;-84
2023/03/20 08:25:54;;;;;;;15.85;8.93;;;8.90;99.90;;;;;;5107547;28;20506;-83
2023/03/20 08:28:20;;;;;;;16.38;9.02;;;8.90;99.90;;;;;;5108319;28;20107;-83
2023/03/20 08:30:46;;;;;;;17.52;8.90;;;8.90;99.90;;;;;;5114117;28;20050;-84
2023/03/20 08:33:13;;;;;;;16.45;8.80;;;8.80;99.90;;;;;;5097317;28;20035;-83
2023/03/20 08:35:39;;;;;;;15.48;8.85;;;9.00;99.90;;;;;;5107011;28;20062;-83
2023/03/20 08:38:05;;;;;;;19.42;10.30;;;9.00;99.90;;;;;;5107872;28;20027;-83
2023/03/20 08:40:30;;;;;;;18.73;9.75;;;9.10;99.90;;;;;;5111362;28;20047;-83
2023/03/20 08:42:56;;;;;;;19.63;9.73;;;9.10;99.90;;;;;;5116965;28;20047;-83
2023/03/20 08:45:24;;;;;;;16.83;10.40;;;9.10;99.90;;;;;;5094317;28;20541;-83
2023/03/20 08:47:51;;;;;;;19.30;9.77;;;9.20;99.90;;;;;;5118753;28;20046;-80
2023/03/20 08:50:17;;;;;;;16.80;9.52;;;9.20;99.90;;;;;;5106727;28;20450;-80
2023/03/20 08:52:43;;;;;;;18.67;9.63;;;9.20;99.90;;;;;;5113169;28;20040;-80
2023/03/20 08:55:13;;;;;;;17.50;10.18;;;9.20;99.90;;;;;;5113322;28;20063;-81
2023/03/20 08:57:39;;;;;;;16.55;9.40;;;9.30;99.90;;;;;;5118050;28;20097;-80
2023/03/20 09:00:06;;;;;;;17.13;9.20;;;9.30;99.90;;;;;;5129684;27;20086;-83
2023/03/20 09:02:32;;;;;;;13.25;8.35;;;9.30;99.90;;;;;;5109888;28;20495;-83
2023/03/20 09:04:58;;;;;;;22.48;9.20;;;9.40;99.90;;;;;;5107123;28;20036;-84
2023/03/20 09:07:24;;;;;;;17.02;8.95;;;9.40;99.90;;;;;;5111109;28;20580;-83
2023/03/20 09:09:50;;;;;;;18.67;9.40;;;9.40;99.90;;;;;;5111012;28;20039;-82
2023/03/20 09:12:16;;;;;;;41.42;9.80;;;9.50;99.90;;;;;;5108754;28;20072;-83
2023/03/20 09:14:41;;;;;;;16.52;9.63;;;9.60;99.90;;;;;;5113856;28;20032;-83
2023/03/20 09:17:07;;;;;;;17.70;8.68;;;9.70;99.90;;;;;;5119046;28;20050;-83
2023/03/20 09:19:33;;;;;;;17.17;9.30;;;9.80;99.90;;;;;;5108258;28;20039;-83
2023/03/20 09:21:59;;;;;;;16.10;9.65;;;9.90;99.90;;;;;;5111706;28;20031;-83
2023/03/20 09:24:25;;;;;;;14.88;8.63;;;10.10;99.90;;;;;;5110778;28;20498;-82
2023/03/20 09:26:51;;;;;;;17.58;9.25;;;10.10;99.90;;;;;;5111264;28;20088;-83
2023/03/20 09:29:16;;;;;;;20.00;10.10;;;10.10;99.90;;;;;;5111290;28;20521;-82
2023/03/20 09:31:42;;;;;;;21.88;10.02;;;10.10;99.90;;;;;;5109227;28;20143;-83
2023/03/20 09:34:08;;;;;;;17.70;9.52;;;10.10;99.90;;;;;;5097714;28;20035;-83
2023/03/20 09:36:33;;;;;;;16.90;9.02;;;10.00;99.90;;;;;;5096562;28;20034;-83
2023/03/20 09:38:59;;;;;;;14.32;8.13;;;10.10;99.90;;;;;;5107976;28;20043;-84
2023/03/20 09:41:35;;;;;;;20.20;9.10;;;10.10;99.90;;;;;;5114337;28;20040;-83
2023/03/20 09:44:07;;;;;;;15.80;8.80;;;10.10;99.90;;;;;;5107505;28;20049;-82
2023/03/20 09:47:00;;;;;;;17.23;9.23;;;10.20;99.90;;;;;;5108189;28;20510;-83
2023/03/20 09:49:59;;;;;;;15.27;8.45;;;10.20;99.90;;;;;;5091201;28;20055;-82
2023/03/20 09:52:39;;;;;;;17.83;9.23;;;10.30;99.90;;;;;;5107211;28;20081;-83
2023/03/20 09:55:26;;;;;;;17.90;9.40;;;10.30;99.90;;;;;;5089713;28;20081;-82
2023/03/20 09:57:56;;;;;;;15.88;8.65;;;10.20;99.90;;;;;;5099514;28;20081;-82
2023/03/20 10:00:26;;;;;;;16.55;9.50;;;10.20;99.90;;;;;;5108087;28;20039;-83
2023/03/20 10:03:00;;;;;;;15.80;8.52;;;10.40;99.90;;;;;;5112013;28;20522;-84
2023/03/20 10:05:46;;;;;;;17.27;9.05;;;10.40;99.90;;;;;;5106881;28;20047;-81
2023/03/20 10:08:17;;;;;;;16.00;8.18;;;10.40;99.90;;;;;;5094006;28;20040;-80
2023/03/20 10:11:03;;;;;;;14.73;8.57;;;10.50;99.90;;;;;;5116416;28;20084;-80
2023/03/20 10:13:52;;;;;;;15.73;8.50;;;10.60;99.90;;;;;;5113983;28;20046;-80
2023/03/20 10:16:43;;;;;;;15.25;8.38;;;10.70;99.90;;;;;;5114452;28;20023;-81
2023/03/20 10:19:23;;;;;;;15.32;8.65;;;10.70;99.90;;;;;;5106580;28;20040;-80
2023/03/20 10:22:33;;;;;;;19.48;9.15;;;10.70;99.90;;;;;;5112366;28;20039;-82
2023/03/20 10:25:21;;;;;;;17.10;9.20;;;10.70;99.90;;;;;;5114157;28;20046;-81
2023/03/20 10:27:59;;;;;;;15.32;9.20;;;10.70;99.90;;;;;;5110320;28;20036;-81
2023/03/20 10:30:37;;;;;;;13.52;8.73;;;10.50;99.90;;;;;;5129853;27;20455;-81
2023/03/20 10:33:23;;;;;;;17.90;9.02;;;10.50;99.90;;;;;;5113433;28;20038;-80
2023/03/20 10:36:09;;;;;;;13.68;8.18;;;10.60;99.90;;;;;;5120517;28;20032;-81
2023/03/20 10:39:05;;;;;;;18.45;8.88;;;10.50;99.90;;;;;;5114304;28;20040;-81
2023/03/20 10:41:36;;;;;;;15.35;8.75;;;10.60;99.90;;;;;;5093239;28;20112;-81
2023/03/20 10:44:03;;;;;;;16.42;8.55;;;10.60;99.90;;;;;;5116617;28;20376;-81
2023/03/20 10:46:43;;;;;;;18.92;9.57;;;10.70;99.90;;;;;;5113643;28;20481;-81
2023/03/20 10:49:27;;;;;;;17.65;8.88;;;10.70;99.90;;;;;;5093074;28;20051;-82
2023/03/20 10:52:01;;;;;;;15.85;8.38;;;10.60;99.90;;;;;;5108955;28;20038;-82
2023/03/20 10:54:29;;;;;;;;;;;10.70;99.90;;;;;;5096721;28;20036;-81
2023/03/20 10:57:00;;;;;;;14.15;7.35;;;10.80;99.90;;;;;;5113895;28;19934;-82
2023/03/20 10:59:28;;;;;;;16.00;8.50;;;10.80;99.90;;;;;;5104141;28;20096;-80
2023/03/20 11:01:54;;;;;;;14.23;7.63;;;10.60;99.90;;;;;;5109301;28;20039;-81
2023/03/20 11:04:20;;;;;;;16.98;8.63;;;10.60;99.90;;;;;;5118073;28;20067;-82
2023/03/20 11:06:54;;;;;;;17.20;8.10;;;10.60;99.90;;;;;;5113024;28;20047;-80
2023/03/20 11:09:21;;;;;;;;;;;10.60;99.90;;;;;;5114142;28;20036;-81
2023/03/20 11:11:48;;;;;;;14.32;7.25;;;10.50;99.90;;;;;;5118584;28;20029;-81
2023/03/20 11:14:19;;;;;;;16.08;8.23;;;10.40;99.90;;;;;;5117174;28;20072;-81
2023/03/20 11:16:53;;;;;;;16.85;7.47;;;10.20;99.90;;;;;;5111085;28;20115;-81
2023/03/20 11:19:20;;;;;;;13.90;7.28;;;10.20;99.90;;;;;;5134453;27;20066;-80
2023/03/20 11:21:47;;;;;;;16.65;8.20;;;10.20;99.90;;;;;;5113850;28;20065;-81
2023/03/20 11:24:35;;;;;;;14.60;7.63;;;10.40;99.90;;;;;;5112517;28;20039;-81
2023/03/20 11:27:05;;;;;;;14.98;8.02;;;10.30;99.90;;;;;;5110951;28;20040;-80
2023/03/20 11:29:34;;;;;;;13.90;8.40;;;10.40;99.90;;;;;;5115694;28;20108;-81
2023/03/20 11:32:21;;;;;;;13.00;7.30;;;10.30;99.90;;;;;;5106651;28;20111;-80
2023/03/20 11:34:46;;;;;;;11.85;7.28;;;10.30;99.90;;;;;;5111864;28;20038;-81
2023/03/20 11:37:28;;;;;;;14.18;6.78;;;10.30;99.90;;;;;;5115850;28;20115;-81
2023/03/20 11:40:13;;;;;;;14.77;6.40;;;10.30;99.90;;;;;;5102183;28;20031;-80
2023/03/20 11:42:50;;;;;;;10.00;6.50;;;10.20;99.90;;;;;;5118512;28;20127;-80
2023/03/20 11:45:16;;;;;;;16.02;7.55;;;10.20;99.90;;;;;;5102014;28;20059;-81
2023/03/20 11:47:42;;;;;;;13.45;6.97;;;10.20;99.90;;;;;;5113075;28;20047;-81
2023/03/20 11:50:36;;;;;;;11.05;7.20;;;10.10;99.90;;;;;;5119287;28;20038;-81
2023/03/20 11:53:14;;;;;;;;;;;10.10;99.90;;;;;;5097901;28;20539;-81
2023/03/20 11:55:40;;;;;;;13.30;7.40;;;9.90;99.90;;;;;;5111625;28;19923;-80
2023/03/20 11:58:14;;;;;;;11.73;6.00;;;10.00;99.90;;;;;;5120044;28;20035;-80
2023/03/20 12:00:41;;;;;;;14.73;6.63;;;9.90;99.90;;;;;;5117829;28;20035;-81
2023/03/20 12:03:43;;;;;;;10.90;6.22;;;9.90;99.90;;;;;;5119183;28;20040;-80
2023/03/20 12:06:21;;;;;;;9.65;5.80;;;9.80;99.90;;;;;;5144270;27;20447;-80
2023/03/20 12:08:53;;;;;;;9.73;5.22;;;9.80;99.90;;;;;;5114371;28;20562;-80
2023/03/20 12:11:40;;;;;;;10.00;4.80;;;9.80;99.90;;;;;;5098014;28;20054;-80
2023/03/20 12:14:36;;;;;;;11.63;5.00;;;9.70;99.90;;;;;;5111684;28;20602;-81
2023/03/20 12:17:27;;;;;;;8.95;4.72;;;9.70;99.90;;;;;;5106915;28;20046;-80
2023/03/20 12:19:58;;;;;;;9.05;4.30;;;9.80;99.90;;;;;;5106304;28;20031;-80
2023/03/20 12:22:30;;;;;;;7.43;4.30;;;9.80;99.90;;;;;;5107234;28;20495;-81
2023/03/20 12:25:22;;;;;;;8.80;3.90;;;9.70;99.90;;;;;;5115212;28;20662;-81
2023/03/20 12:27:55;;;;;;;7.72;3.70;;;9.70;99.90;;;;;;5102352;28;20036;-80
2023/03/20 12:30:30;;;;;;;8.95;3.85;;;9.60;99.90;;;;;;5111698;28;20033;-81
2023/03/20 12:33:10;;;;;;;8.32;4.00;;;9.70;99.90;;;;;;5111355;28;20045;-81
2023/03/20 12:35:48;;;;;;;8.65;3.25;;;9.70;99.90;;;;;;5113504;28;20079;-80
2023/03/20 12:38:30;;;;;;;6.68;3.00;;;9.50;99.90;;;;;;5095588;28;20100;-81
2023/03/20 12:41:27;;;;;;;6.07;3.10;;;9.50;99.90;;;;;;5109415;28;20032;-80
2023/03/20 12:44:15;;;;;;;8.10;3.60;;;9.50;99.90;;;;;;5109375;28;20089;-80
2023/03/20 12:46:49;;;;;;;6.90;3.38;;;9.50;99.90;;;;;;5099486;28;20042;-80
2023/03/20 12:49:34;;;;;;;8.25;3.65;;;9.60;99.90;;;;;;5114365;28;20040;-80
2023/03/20 12:52:03;;;;;;;9.35;3.22;;;9.70;99.90;;;;;;5112349;28;20040;-80
2023/03/20 12:54:56;;;;;;;7.22;3.55;;;9.60;99.90;;;;;;5111477;28;20047;-80
2023/03/20 12:57:42;;;;;;;9.65;4.57;;;9.60;99.90;;;;;;5108145;28;20032;-81
2023/03/20 13:00:41;;;;;;;8.48;4.70;;;9.50;99.90;;;;;;5108048;28;20036;-80
2023/03/20 13:03:35;;;;;;;7.93;4.82;;;9.40;99.90;;;;;;5100219;28;20067;-80
2023/03/20 13:06:30;;;;;;;8.90;4.93;;;9.30;99.90;;;;;;5104237;28;20035;-80
2023/03/20 13:09:25;;;;;;;8.55;5.22;;;9.20;99.90;;;;;;5098351;28;20099;-80